Time;durP1;ratioP1;P1;durP2;ratioP2;P2;SDS_P1;SDS_P2;PMS_P1;PMS_P2;Temp;Humidity;BMP_temperature;BMP_pressure;BME280_temperature;BME280_humidity;BME280_pressure;Samples;Min_cycle;Max_cycle;Signal;HPM_P1;HPM_P2
2021/12/23 00:00:40;;;;;;;;;;;;;;;;;;4988511;28;19921;-81
2021/12/23 00:03:05;;;;;;;;;;;;;;;;;;5009672;28;19917;-82
2021/12/23 00:05:31;;;;;;;;;;;;;;;;;;5029994;28;19927;-81
2021/12/23 00:08:03;;;;;;;;;;;;;;;;;;5031447;28;19928;-81
2021/12/23 00:10:31;;;;;;;;;;;;;;;;;;5033679;28;19921;-82
2021/12/23 00:12:56;;;;;;;;;;;;;;;;;;5021998;28;19979;-81
2021/12/23 00:18:57;;;;;;;;;;;;;;;;;;4998926;28;19929;-81
2021/12/23 00:24:06;;;;;;;;;;;;;;;;;;5016845;28;19928;-81
2021/12/23 00:26:31;;;;;;;;;;;;;;;;;;5012929;28;19975;-81
2021/12/23 00:29:00;;;;;;;;;;;;;;;;;;5021642;28;20496;-81
2021/12/23 00:31:25;;;;;;;;;;;;;;;;;;5011603;28;19980;-79
2021/12/23 00:33:52;;;;;;;;;;;;;;;;;;4999094;28;19918;-79
2021/12/23 00:36:17;;;;;;;;;;;;;;;;;;4997139;28;19918;-82
2021/12/23 00:38:51;;;;;;;;;;;;;;;;;;5014084;28;20015;-81
2021/12/23 00:41:19;;;;;;;;;;;;;;;;;;5013827;28;19949;-81
2021/12/23 00:43:48;;;;;;;;;;;;;;;;;;5011283;28;19948;-81
2021/12/23 00:46:13;;;;;;;;;;;;;;;;;;4997223;28;20285;-81
2021/12/23 00:48:41;;;;;;;;;;;;;;;;;;5019196;28;19917;-80
2021/12/23 00:51:08;;;;;;;;;;;;;;;;;;5032610;28;19917;-81
2021/12/23 00:53:39;;;;;;;;;;;;;;;;;;5026523;28;19913;-81
2021/12/23 00:56:09;;;;;;;;;;;;;;;;;;5036215;28;20000;-79
2021/12/23 00:58:34;;;;;;;;;;;;;;;;;;5035314;28;19913;-79
2021/12/23 01:01:00;;;;;;;;;;;;;;;;;;5029884;28;19976;-80
2021/12/23 01:03:26;;;;;;;;;;;;;;;;;;5035260;28;19975;-80
2021/12/23 01:05:51;;;;;;;;;;;;;;;;;;5027513;28;20385;-81
2021/12/23 01:08:21;;;;;;;;;;;;;;;;;;5034855;28;19917;-81
2021/12/23 01:10:49;;;;;;;;;;;;;;;;;;5035122;28;19925;-80
2021/12/23 01:13:19;;;;;;;;;;;;;;;;;;5025729;28;20416;-80
2021/12/23 01:16:08;;;;;;;;;;;;;;;;;;5035069;28;19917;-80
2021/12/23 01:18:37;;;;;;;;;;;;;;;;;;5025593;28;20314;-81
2021/12/23 01:21:04;;;;;;;;;;;;;;;;;;5032914;28;19917;-80
2021/12/23 01:23:34;;;;;;;;;;;;;;;;;;5028738;28;19996;-80
2021/12/23 01:26:00;;;;;;;;;;;;;;;;;;5032109;28;20330;-80
2021/12/23 01:28:26;;;;;;;;;;;;;;;;;;5035220;28;19943;-80
2021/12/23 01:30:51;;;;;;;;;;;;;;;;;;5027952;28;19929;-80
2021/12/23 01:33:16;;;;;;;;;;;;;;;;;;5023295;28;20248;-80
2021/12/23 01:35:44;;;;;;;;;;;;;;;;;;5033811;28;20250;-80
2021/12/23 01:38:09;;;;;;;;;;;;;;;;;;5022830;28;19931;-80
2021/12/23 01:40:35;;;;;;;;;;;;;;;;;;5029859;28;20020;-81
2021/12/23 01:43:04;;;;;;;;;;;;;;;;;;5034801;28;20346;-81
2021/12/23 01:45:32;;;;;;;;;;;;;;;;;;5034459;28;19917;-81
2021/12/23 01:47:58;;;;;;;;;;;;;;;;;;5034724;28;19917;-81
2021/12/23 01:50:26;;;;;;;;;;;;;;;;;;5034504;28;20227;-80
2021/12/23 01:52:52;;;;;;;;;;;;;;;;;;5030985;28;19979;-80
2021/12/23 01:55:19;;;;;;;;;;;;;;;;;;5034011;28;20394;-80
2021/12/23 01:57:46;;;;;;;;;;;;;;;;;;5034354;28;19960;-80
2021/12/23 02:00:13;;;;;;;;;;;;;;;;;;5028253;28;20020;-80
2021/12/23 02:02:39;;;;;;;;;;;;;;;;;;5034062;28;19913;-79
2021/12/23 02:05:04;;;;;;;;;;;;;;;;;;5024422;28;19991;-80
2021/12/23 02:07:29;;;;;;;;;;;;;;;;;;5033980;28;19917;-80
2021/12/23 02:09:57;;;;;;;;;;;;;;;;;;5027403;28;19956;-81
2021/12/23 02:12:22;;;;;;;;;;;;;;;;;;5022430;28;19967;-81
2021/12/23 02:14:47;;;;;;;;;;;;;;;;;;5033922;28;19924;-81
2021/12/23 02:17:13;;;;;;;;;;;;;;;;;;5033618;28;19925;-81
2021/12/23 02:19:38;;;;;;;;;;;;;;;;;;5033897;28;20017;-80
2021/12/23 02:22:03;;;;;;;;;;;;;;;;;;5034057;28;19937;-80
2021/12/23 02:24:33;;;;;;;;;;;;;;;;;;5033587;28;19956;-81
2021/12/23 02:26:58;;;;;;;;;;;;;;;;;;5033983;28;19966;-80
2021/12/23 02:29:27;;;;;;;;;;;;;;;;;;5033802;28;20332;-80
2021/12/23 02:31:52;;;;;;;;;;;;;;;;;;5033655;28;19917;-81
2021/12/23 02:34:18;;;;;;;;;;;;;;;;;;5027392;28;19924;-80
2021/12/23 02:36:59;;;;;;;;;;;;;;;;;;5033413;28;19917;-80
2021/12/23 02:39:25;;;;;;;;;;;;;;;;;;5046786;28;20015;-80
2021/12/23 02:41:50;;;;;;;;;;;;;;;;;;5024672;28;19917;-80
2021/12/23 02:44:16;;;;;;;;;;;;;;;;;;5021982;28;20293;-80
2021/12/23 02:46:44;;;;;;;;;;;;;;;;;;5027390;28;19912;-80
2021/12/23 02:49:10;;;;;;;;;;;;;;;;;;5026947;28;19917;-81
2021/12/23 02:51:35;;;;;;;;;;;;;;;;;;5033634;28;19928;-81
2021/12/23 02:54:00;;;;;;;;;;;;;;;;;;5032473;28;19948;-81
2021/12/23 02:56:26;;;;;;;;;;;;;;;;;;5033723;28;19916;-80
2021/12/23 02:58:54;;;;;;;;;;;;;;;;;;5025054;28;19918;-81
2021/12/23 03:01:25;;;;;;;;;;;;;;;;;;5026232;28;19917;-81
2021/12/23 03:03:52;;;;;;;;;;;;;;;;;;5025714;28;19921;-81
2021/12/23 03:06:22;;;;;;;;;;;;;;;;;;5025731;28;19963;-80
2021/12/23 03:08:59;;;;;;;;;;;;;;;;;;5032190;28;20420;-81
2021/12/23 03:11:25;;;;;;;;;;;;;;;;;;5032530;28;19990;-80
2021/12/23 03:13:51;;;;;;;;;;;;;;;;;;5032456;28;19913;-80
2021/12/23 03:16:24;;;;;;;;;;;;;;;;;;5036129;28;19917;-80
2021/12/23 03:18:49;;;;;;;;;;;;;;;;;;5036665;28;20007;-80
2021/12/23 03:21:14;;;;;;;;;;;;;;;;;;5037806;28;20335;-80
2021/12/23 03:23:42;;;;;;;;;;;;;;;;;;5037512;28;20231;-80
2021/12/23 03:26:09;;;;;;;;;;;;;;;;;;5037295;28;19924;-81
2021/12/23 03:28:35;;;;;;;;;;;;;;;;;;5036534;28;19917;-81
2021/12/23 03:31:02;;;;;;;;;;;;;;;;;;5037421;28;19913;-80
2021/12/23 03:33:27;;;;;;;;;;;;;;;;;;5036986;28;19917;-81
2021/12/23 03:35:53;;;;;;;;;;;;;;;;;;5036757;28;20397;-81
2021/12/23 03:38:18;;;;;;;;;;;;;;;;;;5036920;28;20243;-81
2021/12/23 03:40:44;;;;;;;;;;;;;;;;;;5037215;28;20016;-81
2021/12/23 03:43:12;;;;;;;;;;;;;;;;;;5037244;28;19913;-80
2021/12/23 03:45:42;;;;;;;;;;;;;;;;;;5037119;28;19917;-80
2021/12/23 03:48:08;;;;;;;;;;;;;;;;;;5037454;28;20024;-80
2021/12/23 03:50:33;;;;;;;;;;;;;;;;;;5037683;28;19961;-80
2021/12/23 03:53:00;;;;;;;;;;;;;;;;;;5038054;28;19920;-80
2021/12/23 03:55:26;;;;;;;;;;;;;;;;;;5037082;28;19961;-80
2021/12/23 03:57:51;;;;;;;;;;;;;;;;;;5038050;28;19972;-80
2021/12/23 04:00:17;;;;;;;;;;;;;;;;;;5036452;28;20020;-80
2021/12/23 04:02:43;;;;;;;;;;;;;;;;;;5036903;28;19943;-81
2021/12/23 04:05:11;;;;;;;;;;;;;;;;;;5036690;28;19913;-80
2021/12/23 04:07:36;;;;;;;;;;;;;;;;;;5019981;28;19917;-81
2021/12/23 04:10:04;;;;;;;;;;;;;;;;;;5035662;28;19917;-81
2021/12/23 04:12:31;;;;;;;;;;;;;;;;;;5036617;28;20301;-81
2021/12/23 04:14:57;;;;;;;;;;;;;;;;;;5036940;28;19978;-81
2021/12/23 04:17:24;;;;;;;;;;;;;;;;;;5037322;28;19957;-80
2021/12/23 04:19:52;;;;;;;;;;;;;;;;;;5037033;28;19918;-80
2021/12/23 04:22:17;;;;;;;;;;;;;;;;;;5035754;28;20246;-80
2021/12/23 04:24:42;;;;;;;;;;;;;;;;;;5036447;28;19925;-80
2021/12/23 04:27:08;;;;;;;;;;;;;;;;;;5035469;28;19927;-80
2021/12/23 04:29:33;;;;;;;;;;;;;;;;;;5036465;28;19916;-80
2021/12/23 04:32:01;;;;;;;;;;;;;;;;;;5036417;28;20369;-80
2021/12/23 04:34:26;;;;;;;;;;;;;;;;;;5036458;28;19917;-80
2021/12/23 04:36:54;;;;;;;;;;;;;;;;;;5018741;28;19921;-80
2021/12/23 04:39:19;;;;;;;;;;;;;;;;;;5036205;28;19913;-80
2021/12/23 04:41:45;;;;;;;;;;;;;;;;;;5036188;28;19921;-80
2021/12/23 04:44:11;;;;;;;;;;;;;;;;;;5036163;28;19913;-80
2021/12/23 04:46:36;;;;;;;;;;;;;;;;;;5019262;28;20381;-80
2021/12/23 04:49:04;;;;;;;;;;;;;;;;;;5035059;28;19928;-80
2021/12/23 04:51:29;;;;;;;;;;;;;;;;;;5036155;28;19913;-80
2021/12/23 04:53:54;;;;;;;;;;;;;;;;;;5035955;28;20188;-80
2021/12/23 04:56:19;;;;;;;;;;;;;;;;;;5035786;28;19917;-80
2021/12/23 04:58:45;;;;;;;;;;;;;;;;;;5036038;28;19917;-81
2021/12/23 05:01:19;;;;;;;;;;;;;;;;;;5033747;28;20079;-80
2021/12/23 05:03:44;;;;;;;;;;;;;;;;;;5015558;28;20263;-80
2021/12/23 05:06:09;;;;;;;;;;;;;;;;;;5033553;28;19917;-81
2021/12/23 05:08:37;;;;;;;;;;;;;;;;;;5035408;28;19991;-81
2021/12/23 05:11:04;;;;;;;;;;;;;;;;;;5035627;28;20271;-81
2021/12/23 05:13:30;;;;;;;;;;;;;;;;;;5033706;28;19987;-81
2021/12/23 05:15:55;;;;;;;;;;;;;;;;;;5036147;28;19928;-81
2021/12/23 05:18:20;;;;;;;;;;;;;;;;;;5034828;28;19921;-80
2021/12/23 05:20:49;;;;;;;;;;;;;;;;;;5034627;28;19963;-79
2021/12/23 05:23:14;;;;;;;;;;;;;;;;;;5035600;28;19928;-79
2021/12/23 05:25:40;;;;;;;;;;;;;;;;;;5035726;28;19913;-79
2021/12/23 05:28:05;;;;;;;;;;;;;;;;;;5035529;28;20389;-79
2021/12/23 05:30:33;;;;;;;;;;;;;;;;;;5035424;28;19928;-79
2021/12/23 05:33:00;;;;;;;;;;;;;;;;;;5035528;28;20316;-79
2021/12/23 05:35:25;;;;;;;;;;;;;;;;;;5036456;28;20055;-78
2021/12/23 05:37:53;;;;;;;;;;;;;;;;;;5034491;28;20011;-79
2021/12/23 05:40:19;;;;;;;;;;;;;;;;;;5034309;28;19936;-79
2021/12/23 05:42:44;;;;;;;;;;;;;;;;;;5035126;28;20009;-80
2021/12/23 05:45:12;;;;;;;;;;;;;;;;;;5035458;28;20365;-79
2021/12/23 05:47:38;;;;;;;;;;;;;;;;;;5033924;28;19940;-79
2021/12/23 05:50:04;;;;;;;;;;;;;;;;;;5035045;28;19913;-79
2021/12/23 05:52:29;;;;;;;;;;;;;;;;;;5034764;28;19948;-79
2021/12/23 05:54:56;;;;;;;;;;;;;;;;;;5035376;28;19913;-80
2021/12/23 05:57:21;;;;;;;;;;;;;;;;;;5035025;28;19920;-80
2021/12/23 05:59:46;;;;;;;;;;;;;;;;;;5035005;28;19923;-80
2021/12/23 06:02:11;;;;;;;;;;;;;;;;;;5034638;28;19923;-80
2021/12/23 06:04:36;;;;;;;;;;;;;;;;;;5034725;28;19913;-79
2021/12/23 06:07:02;;;;;;;;;;;;;;;;;;5034606;28;19913;-80
2021/12/23 06:09:27;;;;;;;;;;;;;;;;;;5033430;28;19949;-79
2021/12/23 06:11:55;;;;;;;;;;;;;;;;;;5034509;28;20258;-79
2021/12/23 06:14:21;;;;;;;;;;;;;;;;;;5034284;28;20301;-80
2021/12/23 06:16:47;;;;;;;;;;;;;;;;;;5034426;28;20040;-79
2021/12/23 06:19:12;;;;;;;;;;;;;;;;;;5033389;28;20008;-80
2021/12/23 06:21:37;;;;;;;;;;;;;;;;;;5034657;28;19924;-80
2021/12/23 06:24:05;;;;;;;;;;;;;;;;;;5034234;28;19924;-79
2021/12/23 06:26:31;;;;;;;;;;;;;;;;;;5034196;28;19917;-80
2021/12/23 06:28:58;;;;;;;;;;;;;;;;;;5034440;28;20016;-79
2021/12/23 06:31:24;;;;;;;;;;;;;;;;;;5034232;28;19921;-79
2021/12/23 06:33:51;;;;;;;;;;;;;;;;;;5033429;28;19967;-79
2021/12/23 06:36:17;;;;;;;;;;;;;;;;;;5034483;28;19917;-80
2021/12/23 06:38:43;;;;;;;;;;;;;;;;;;5034009;28;19975;-79
2021/12/23 06:41:08;;;;;;;;;;;;;;;;;;5016223;28;19968;-79
2021/12/23 06:43:34;;;;;;;;;;;;;;;;;;5034043;28;19913;-80
2021/12/23 06:46:00;;;;;;;;;;;;;;;;;;5032969;28;19917;-80
2021/12/23 06:48:25;;;;;;;;;;;;;;;;;;5034172;28;19917;-80
2021/12/23 06:50:54;;;;;;;;;;;;;;;;;;5033419;28;19917;-80
2021/12/23 06:53:22;;;;;;;;;;;;;;;;;;5034110;28;19999;-78
2021/12/23 06:55:50;;;;;;;;;;;;;;;;;;5032785;28;20023;-79
2021/12/23 06:58:16;;;;;;;;;;;;;;;;;;5032901;28;19982;-79
2021/12/23 07:00:41;;;;;;;;;;;;;;;;;;5033753;28;20028;-79
2021/12/23 07:03:06;;;;;;;;;;;;;;;;;;5033795;28;19913;-82
2021/12/23 07:05:32;;;;;;;;;;;;;;;;;;5032678;28;20087;-80
2021/12/23 07:08:05;;;;;;;;;;;;;;;;;;5032986;28;19913;-80
2021/12/23 07:10:31;;;;;;;;;;;;;;;;;;5033507;28;19917;-80
2021/12/23 07:12:57;;;;;;;;;;;;;;;;;;5033811;28;19913;-81
2021/12/23 07:15:26;;;;;;;;;;;;;;;;;;5032689;28;19928;-81
2021/12/23 07:17:52;;;;;;;;;;;;;;;;;;5032880;28;19928;-81
2021/12/23 07:20:20;;;;;;;;;;;;;;;;;;5032601;28;19917;-82
2021/12/23 07:22:45;;;;;;;;;;;;;;;;;;5032225;28;19916;-81
2021/12/23 07:25:12;;;;;;;;;;;;;;;;;;5032584;28;19917;-82
2021/12/23 07:27:38;;;;;;;;;;;;;;;;;;5015339;28;19956;-82
2021/12/23 07:30:03;;;;;;;;;;;;;;;;;;5033671;28;20372;-82
2021/12/23 07:32:29;;;;;;;;;;;;;;;;;;5032769;28;19924;-80
2021/12/23 07:34:54;;;;;;;;;;;;;;;;;;5033667;28;19940;-81
2021/12/23 07:37:22;;;;;;;;;;;;;;;;;;5029000;28;19988;-82
2021/12/23 07:39:50;;;;;;;;;;;;;;;;;;5013869;28;19979;-81
2021/12/23 07:42:16;;;;;;;;;;;;;;;;;;4996603;28;19924;-80
2021/12/23 07:44:42;;;;;;;;;;;;;;;;;;5013400;28;19971;-81
2021/12/23 07:47:07;;;;;;;;;;;;;;;;;;5013648;28;19913;-80
2021/12/23 07:49:32;;;;;;;;;;;;;;;;;;5013451;28;19944;-80
2021/12/23 07:51:58;;;;;;;;;;;;;;;;;;5013558;28;19913;-80
2021/12/23 07:54:23;;;;;;;;;;;;;;;;;;5013392;28;19929;-81
2021/12/23 07:56:51;;;;;;;;;;;;;;;;;;5013665;28;19926;-80
2021/12/23 07:59:16;;;;;;;;;;;;;;;;;;5013238;28;20258;-81
2021/12/23 08:01:41;;;;;;;;;;;;;;;;;;5014729;28;19920;-80
2021/12/23 08:04:06;;;;;;;;;;;;;;;;;;5017514;28;20016;-81
2021/12/23 08:06:31;;;;;;;;;;;;;;;;;;5017441;28;19924;-81
2021/12/23 08:08:57;;;;;;;;;;;;;;;;;;5017024;28;19918;-81
2021/12/23 08:11:22;;;;;;;;;;;;;;;;;;5016827;28;20244;-81
2021/12/23 08:13:47;;;;;;;;;;;;;;;;;;5017218;28;19921;-81
2021/12/23 08:16:12;;;;;;;;;;;;;;;;;;5016176;28;19928;-80
2021/12/23 08:18:38;;;;;;;;;;;;;;;;;;4983655;28;19996;-80
2021/12/23 08:21:03;;;;;;;;;;;;;;;;;;5016986;28;19980;-81
2021/12/23 08:23:30;;;;;;;;;;;;;;;;;;5016954;28;19972;-80
2021/12/23 08:26:02;;;;;;;;;;;;;;;;;;4999530;28;19918;-80
2021/12/23 08:28:27;;;;;;;;;;;;;;;;;;5016396;28;19971;-80
2021/12/23 08:30:53;;;;;;;;;;;;;;;;;;5016289;28;19917;-80
2021/12/23 08:33:20;;;;;;;;;;;;;;;;;;5016906;28;19925;-80
2021/12/23 08:35:45;;;;;;;;;;;;;;;;;;5016476;28;19917;-80
2021/12/23 08:38:13;;;;;;;;;;;;;;;;;;5003837;28;20367;-81
2021/12/23 08:40:38;;;;;;;;;;;;;;;;;;5036281;28;20015;-80
2021/12/23 08:43:03;;;;;;;;;;;;;;;;;;5036422;28;19970;-80
2021/12/23 08:45:29;;;;;;;;;;;;;;;;;;5036105;28;19979;-81
2021/12/23 08:47:56;;;;;;;;;;;;;;;;;;5018878;28;19949;-80
2021/12/23 08:50:23;;;;;;;;;;;;;;;;;;5036017;28;20238;-81
2021/12/23 08:52:48;;;;;;;;;;;;;;;;;;5035252;28;19921;-80
2021/12/23 08:55:13;;;;;;;;;;;;;;;;;;5034992;28;19917;-81
2021/12/23 08:57:41;;;;;;;;;;;;;;;;;;5035878;28;19928;-81
2021/12/23 09:00:08;;;;;;;;;;;;;;;;;;5034284;28;19969;-80
2021/12/23 09:02:33;;;;;;;;;;;;;;;;;;5027412;28;19982;-80
2021/12/23 09:05:01;;;;;;;;;;;;;;;;;;5026984;28;20293;-81
2021/12/23 09:07:26;;;;;;;;;;;;;;;;;;5034979;28;20357;-80
2021/12/23 09:09:52;;;;;;;;;;;;;;;;;;5036089;28;19992;-80
2021/12/23 09:12:17;;;;;;;;;;;;;;;;;;5017533;28;20039;-80
2021/12/23 09:14:43;;;;;;;;;;;;;;;;;;5014849;28;20397;-80
2021/12/23 09:17:08;;;;;;;;;;;;;;;;;;5017361;28;19918;-80
2021/12/23 09:19:33;;;;;;;;;;;;;;;;;;5035593;28;20472;-79
2021/12/23 09:21:58;;;;;;;;;;;;;;;;;;5035409;28;19913;-80
2021/12/23 09:24:26;;;;;;;;;;;;;;;;;;5035329;28;19920;-80
2021/12/23 09:26:58;;;;;;;;;;;;;;;;;;5034466;28;19913;-81
2021/12/23 09:34:46;;;;;;;;;;;;;;;;;;5018094;28;20262;-80
2021/12/23 09:37:11;;;;;;;;;;;;;;;;;;5019512;28;19921;-80
2021/12/23 09:39:39;;;;;;;;;;;;;;;;;;5035284;28;20303;-80
2021/12/23 09:42:04;;;;;;;;;;;;;;;;;;5035246;28;20342;-80
2021/12/23 09:44:31;;;;;;;;;;;;;;;;;;5017803;28;19920;-81
2021/12/23 09:46:59;;;;;;;;;;;;;;;;;;5034898;28;20348;-79
2021/12/23 09:49:24;;;;;;;;;;;;;;;;;;5018083;28;19924;-80
2021/12/23 09:51:50;;;;;;;;;;;;;;;;;;5017638;28;19917;-80
2021/12/23 09:54:15;;;;;;;;;;;;;;;;;;5035181;28;19928;-80
2021/12/23 09:56:40;;;;;;;;;;;;;;;;;;5034363;28;19932;-80
2021/12/23 09:59:09;;;;;;;;;;;;;;;;;;5017609;28;20428;-80
2021/12/23 10:01:34;;;;;;;;;;;;;;;;;;5034732;28;20350;-79
2021/12/23 10:04:00;;;;;;;;;;;;;;;;;;5000791;28;20028;-79
2021/12/23 10:06:26;;;;;;;;;;;;;;;;;;5017258;28;19921;-79
2021/12/23 10:08:54;;;;;;;;;;;;;;;;;;5017306;28;19913;-79
2021/12/23 10:12:56;;;;;;;;;;;;;;;;;;5017367;28;20341;-79
2021/12/23 10:31:05;;;;;;;;;;;;;;;;;;5034168;28;19921;-80
2021/12/23 10:33:44;;;;;;;;;;;;;;;;;;5034172;28;20412;-82
2021/12/23 10:38:43;;;;;;;;;;;;;;;;;;5033814;28;20330;-80
2021/12/23 10:41:17;;;;;;;;;;;;;;;;;;5034042;28;19928;-81
2021/12/23 10:43:44;;;;;;;;;;;;;;;;;;5033892;28;19917;-80
2021/12/23 10:46:27;;;;;;;;;;;;;;;;;;5033095;28;20321;-81
2021/12/23 10:51:57;;;;;;;;;;;;;;;;;;4999439;28;19913;-81
2021/12/23 11:00:24;;;;;;;;;;;;;;;;;;5034336;28;19931;-81
2021/12/23 11:03:10;;;;;;;;;;;;;;;;;;5035560;28;19913;-80
2021/12/23 11:05:46;;;;;;;;;;;;;;;;;;5028878;28;19921;-81
2021/12/23 11:08:31;;;;;;;;;;;;;;;;;;5031753;28;19917;-82
2021/12/23 11:36:17;;;;;;;;;;;;;;;;;;5034395;28;19927;-82
2021/12/23 11:43:51;;;;;;;;;;;;;;;;;;5035318;28;19916;-82
2021/12/23 11:46:23;;;;;;;;;;;;;;;;;;5035009;28;19921;-83
2021/12/23 11:48:52;;;;;;;;;;;;;;;;;;5027983;28;19917;-82
2021/12/23 11:51:28;;;;;;;;;;;;;;;;;;5016310;28;19920;-81
2021/12/23 11:53:59;;;;;;;;;;;;;;;;;;5021348;28;19956;-82
2021/12/23 11:56:46;;;;;;;;;;;;;;;;;;5018245;28;20025;-84
2021/12/23 11:59:13;;;;;;;;;;;;;;;;;;5036575;28;20385;-82
2021/12/23 12:01:44;;;;;;;;;;;;;;;;;;5025703;28;19960;-82
2021/12/23 12:04:24;;;;;;;;;;;;;;;;;;5015886;28;19918;-81
2021/12/23 12:06:50;;;;;;;;;;;;;;;;;;5043923;28;19928;-82
2021/12/23 12:09:16;;;;;;;;;;;;;;;;;;5034671;28;20011;-82
2021/12/23 12:14:40;;;;;;;;;;;;;;;;;;5032009;28;19967;-81
2021/12/23 12:17:26;;;;;;;;;;;;;;;;;;5034567;28;19925;-82
2021/12/23 12:19:53;;;;;;;;;;;;;;;;;;5033979;28;19927;-82
2021/12/23 12:22:43;;;;;;;;;;;;;;;;;;5034254;28;19956;-82
2021/12/23 12:25:10;;;;;;;;;;;;;;;;;;5035272;28;20019;-82
2021/12/23 12:27:44;;;;;;;;;;;;;;;;;;5034828;28;20368;-81
2021/12/23 12:30:14;;;;;;;;;;;;;;;;;;5017787;28;19927;-82
2021/12/23 12:32:39;;;;;;;;;;;;;;;;;;4998832;28;19914;-82
2021/12/23 12:35:20;;;;;;;;;;;;;;;;;;5023502;28;19928;-82
2021/12/23 12:37:46;;;;;;;;;;;;;;;;;;5016224;28;19932;-82
2021/12/23 12:40:11;;;;;;;;;;;;;;;;;;5033923;28;19916;-82
2021/12/23 12:42:41;;;;;;;;;;;;;;;;;;5033993;28;20004;-82
2021/12/23 12:45:14;;;;;;;;;;;;;;;;;;5032026;28;20317;-82
2021/12/23 12:47:47;;;;;;;;;;;;;;;;;;5032920;28;19917;-83
2021/12/23 12:50:17;;;;;;;;;;;;;;;;;;5033859;28;19917;-81
2021/12/23 12:52:44;;;;;;;;;;;;;;;;;;5050140;28;19917;-83
2021/12/23 12:55:12;;;;;;;;;;;;;;;;;;5030348;28;19917;-83
2021/12/23 12:57:40;;;;;;;;;;;;;;;;;;5017362;28;19921;-87
2021/12/23 13:00:18;;;;;;;;;;;;;;;;;;5017273;28;19961;-84
2021/12/23 13:03:12;;;;;;;;;;;;;;;;;;5017475;28;19913;-84
2021/12/23 13:05:39;;;;;;;;;;;;;;;;;;5021166;28;20486;-85
2021/12/23 13:08:19;;;;;;;;;;;;;;;;;;5035122;28;19913;-81
2021/12/23 13:10:48;;;;;;;;;;;;;;;;;;5039928;28;19917;-81
2021/12/23 13:13:32;;;;;;;;;;;;;;;;;;5041436;28;19923;-81
2021/12/23 13:16:01;;;;;;;;;;;;;;;;;;5035250;28;19990;-88
2021/12/23 13:18:26;;;;;;;;;;;;;;;;;;5041984;28;19925;-83
2021/12/23 13:20:56;;;;;;;;;;;;;;;;;;5041896;28;20021;-81
2021/12/23 13:23:39;;;;;;;;;;;;;;;;;;5042359;28;19924;-83
2021/12/23 13:26:14;;;;;;;;;;;;;;;;;;5032554;28;19917;-82
2021/12/23 13:28:42;;;;;;;;;;;;;;;;;;5016516;28;19925;-82
2021/12/23 13:31:13;;;;;;;;;;;;;;;;;;5034855;28;19913;-83
2021/12/23 13:33:40;;;;;;;;;;;;;;;;;;5034518;28;19956;-82
2021/12/23 13:36:11;;;;;;;;;;;;;;;;;;5024019;28;20424;-80
2021/12/23 13:38:41;;;;;;;;;;;;;;;;;;5029229;28;19928;-81
2021/12/23 13:41:16;;;;;;;;;;;;;;;;;;5033363;28;19970;-80
2021/12/23 13:43:44;;;;;;;;;;;;;;;;;;5014532;28;20524;-80
2021/12/23 13:46:09;;;;;;;;;;;;;;;;;;5030748;28;19955;-81
2021/12/23 13:49:07;;;;;;;;;;;;;;;;;;5030689;28;19945;-80
2021/12/23 13:51:37;;;;;;;;;;;;;;;;;;5001000;28;19917;-81
2021/12/23 13:54:15;;;;;;;;;;;;;;;;;;5033983;28;19913;-80
2021/12/23 13:56:50;;;;;;;;;;;;;;;;;;5034210;28;20384;-80
2021/12/23 13:59:20;;;;;;;;;;;;;;;;;;5033012;28;20318;-81
2021/12/23 14:02:01;;;;;;;;;;;;;;;;;;5014766;28;20177;-80
2021/12/23 14:04:33;;;;;;;;;;;;;;;;;;5031739;28;20111;-81
2021/12/23 14:06:59;;;;;;;;;;;;;;;;;;5016855;28;19979;-81
2021/12/23 14:09:34;;;;;;;;;;;;;;;;;;5033694;28;19956;-79
2021/12/23 14:12:00;;;;;;;;;;;;;;;;;;5033727;28;19996;-80
2021/12/23 14:14:25;;;;;;;;;;;;;;;;;;5032101;28;19917;-79
2021/12/23 14:16:51;;;;;;;;;;;;;;;;;;5034147;28;20437;-80
2021/12/23 14:19:28;;;;;;;;;;;;;;;;;;5034032;28;19944;-79
2021/12/23 14:24:37;;;;;;;;;;;;;;;;;;5029993;28;19975;-81
2021/12/23 14:27:06;;;;;;;;;;;;;;;;;;5018686;28;20301;-81
2021/12/23 14:29:35;;;;;;;;;;;;;;;;;;5041776;28;19921;-81
2021/12/23 14:32:00;;;;;;;;;;;;;;;;;;5032034;28;19947;-80
2021/12/23 14:34:27;;;;;;;;;;;;;;;;;;5029715;28;19921;-80
2021/12/23 14:36:56;;;;;;;;;;;;;;;;;;5037315;28;19927;-79
2021/12/23 14:39:27;;;;;;;;;;;;;;;;;;5052263;28;19963;-80
2021/12/23 14:41:55;;;;;;;;;;;;;;;;;;5054258;28;19913;-80
2021/12/23 14:44:26;;;;;;;;;;;;;;;;;;5036835;28;19999;-80
2021/12/23 14:47:00;;;;;;;;;;;;;;;;;;5033155;28;20338;-80
2021/12/23 14:49:40;;;;;;;;;;;;;;;;;;5032819;28;19917;-80
2021/12/23 14:52:19;;;;;;;;;;;;;;;;;;5034097;28;19917;-80
2021/12/23 14:54:45;;;;;;;;;;;;;;;;;;5033991;28;19924;-79
2021/12/23 14:57:11;;;;;;;;;;;;;;;;;;5016536;28;19967;-79
2021/12/23 14:59:46;;;;;;;;;;;;;;;;;;5045276;28;19921;-79
2021/12/23 15:02:11;;;;;;;;;;;;;;;;;;5052255;28;20338;-79
2021/12/23 15:04:38;;;;;;;;;;;;;;;;;;5034437;28;19971;-80
2021/12/23 15:07:09;;;;;;;;;;;;;;;;;;5026739;28;20270;-80
2021/12/23 15:09:35;;;;;;;;;;;;;;;;;;5052741;28;19912;-80
2021/12/23 15:12:10;;;;;;;;;;;;;;;;;;5051245;28;19913;-80
2021/12/23 15:14:47;;;;;;;;;;;;;;;;;;5033983;28;19913;-79
2021/12/23 15:17:27;;;;;;;;;;;;;;;;;;5040579;28;19939;-80
2021/12/23 15:19:54;;;;;;;;;;;;;;;;;;5014100;28;19979;-80
2021/12/23 15:22:21;;;;;;;;;;;;;;;;;;5029135;28;19975;-81
2021/12/23 15:24:57;;;;;;;;;;;;;;;;;;5039471;28;20007;-81
2021/12/23 15:27:23;;;;;;;;;;;;;;;;;;5044509;28;19928;-82
2021/12/23 15:29:50;;;;;;;;;;;;;;;;;;5053243;28;19939;-81
2021/12/23 15:32:16;;;;;;;;;;;;;;;;;;5042090;28;20345;-82
2021/12/23 15:34:48;;;;;;;;;;;;;;;;;;5035268;28;19920;-81
2021/12/23 15:37:15;;;;;;;;;;;;;;;;;;5036016;28;19932;-86
2021/12/23 15:39:41;;;;;;;;;;;;;;;;;;5036535;28;19959;-80
2021/12/23 15:42:07;;;;;;;;;;;;;;;;;;5035531;28;19917;-81
2021/12/23 15:44:33;;;;;;;;;;;;;;;;;;5033847;28;20012;-82
2021/12/23 15:46:59;;;;;;;;;;;;;;;;;;5032746;28;19991;-82
2021/12/23 15:49:27;;;;;;;;;;;;;;;;;;5032928;28;20256;-82
2021/12/23 15:51:53;;;;;;;;;;;;;;;;;;5016444;28;19913;-82
2021/12/23 15:54:19;;;;;;;;;;;;;;;;;;5035948;28;19924;-82
2021/12/23 15:56:44;;;;;;;;;;;;;;;;;;5045964;28;20266;-81
2021/12/23 15:59:09;;;;;;;;;;;;;;;;;;5033632;28;19913;-82
2021/12/23 16:01:34;;;;;;;;;;;;;;;;;;5033430;28;19996;-82
2021/12/23 16:04:02;;;;;;;;;;;;;;;;;;5032487;28;19913;-82
2021/12/23 16:09:11;;;;;;;;;;;;;;;;;;5027878;28;19936;-81
2021/12/23 16:11:36;;;;;;;;;;;;;;;;;;5033187;28;19917;-81
2021/12/23 16:14:01;;;;;;;;;;;;;;;;;;5031995;28;20358;-82
2021/12/23 16:16:27;;;;;;;;;;;;;;;;;;5035384;28;19913;-82
2021/12/23 16:18:52;;;;;;;;;;;;;;;;;;5037625;28;19921;-81
2021/12/23 16:21:17;;;;;;;;;;;;;;;;;;5032591;28;19913;-81
2021/12/23 16:23:42;;;;;;;;;;;;;;;;;;5033952;28;20316;-81
2021/12/23 16:26:07;;;;;;;;;;;;;;;;;;5036435;28;19920;-80
2021/12/23 16:28:34;;;;;;;;;;;;;;;;;;5035772;28;19917;-81
2021/12/23 16:31:03;;;;;;;;;;;;;;;;;;5034470;28;19972;-79
2021/12/23 16:33:28;;;;;;;;;;;;;;;;;;5035595;28;19920;-79
2021/12/23 16:35:53;;;;;;;;;;;;;;;;;;5036588;28;19914;-80
2021/12/23 16:38:19;;;;;;;;;;;;;;;;;;5023207;28;19921;-79
2021/12/23 16:40:50;;;;;;;;;;;;;;;;;;5016896;28;20254;-81
2021/12/23 16:43:18;;;;;;;;;;;;;;;;;;4999745;28;20365;-80
2021/12/23 16:45:43;;;;;;;;;;;;;;;;;;5016613;28;20351;-80
2021/12/23 16:48:10;;;;;;;;;;;;;;;;;;4999460;28;20019;-81
2021/12/23 16:50:35;;;;;;;;;;;;;;;;;;4999693;28;19913;-81
2021/12/23 16:53:03;;;;;;;;;;;;;;;;;;5016437;28;20248;-79
2021/12/23 16:57:59;;;;;;;;;;;;;;;;;;4999689;28;19929;-80
2021/12/23 17:00:24;;;;;;;;;;;;;;;;;;5016246;28;19920;-81
2021/12/23 17:02:50;;;;;;;;;;;;;;;;;;5016295;28;19918;-81
2021/12/23 17:05:16;;;;;;;;;;;;;;;;;;4999231;28;20430;-79
2021/12/23 17:07:44;;;;;;;;;;;;;;;;;;4999081;28;20028;-79
2021/12/23 17:10:10;;;;;;;;;;;;;;;;;;4998838;28;19924;-78
2021/12/23 17:12:35;;;;;;;;;;;;;;;;;;5016154;28;20004;-79
2021/12/23 17:15:00;;;;;;;;;;;;;;;;;;4982600;28;19927;-80
2021/12/23 17:17:29;;;;;;;;;;;;;;;;;;5015990;28;19921;-80
2021/12/23 17:20:04;;;;;;;;;;;;;;;;;;5015946;28;19967;-81
2021/12/23 17:22:30;;;;;;;;;;;;;;;;;;5015033;28;20353;-81
2021/12/23 17:25:04;;;;;;;;;;;;;;;;;;5002339;28;19918;-78
2021/12/23 17:27:30;;;;;;;;;;;;;;;;;;5014543;28;19914;-78
2021/12/23 17:29:58;;;;;;;;;;;;;;;;;;5017234;28;19924;-75
2021/12/23 17:32:26;;;;;;;;;;;;;;;;;;4997067;28;19917;-76
2021/12/23 17:34:54;;;;;;;;;;;;;;;;;;4983803;28;19939;-77
2021/12/23 17:37:19;;;;;;;;;;;;;;;;;;5019134;28;19932;-80
2021/12/23 17:39:45;;;;;;;;;;;;;;;;;;5032657;28;19917;-79
2021/12/23 17:42:10;;;;;;;;;;;;;;;;;;5023518;28;19917;-79
2021/12/23 17:44:36;;;;;;;;;;;;;;;;;;5014709;28;19917;-80
2021/12/23 17:47:01;;;;;;;;;;;;;;;;;;5033450;28;19928;-82
2021/12/23 17:49:26;;;;;;;;;;;;;;;;;;5022202;28;19925;-81
2021/12/23 17:51:54;;;;;;;;;;;;;;;;;;5025271;28;19917;-78
2021/12/23 17:54:22;;;;;;;;;;;;;;;;;;5024327;28;20350;-79
2021/12/23 17:56:59;;;;;;;;;;;;;;;;;;5023471;28;19918;-80
2021/12/23 17:59:27;;;;;;;;;;;;;;;;;;5023426;28;19944;-77
2021/12/23 18:01:52;;;;;;;;;;;;;;;;;;5033315;28;19921;-81
2021/12/23 18:04:19;;;;;;;;;;;;;;;;;;5023224;28;19932;-78
2021/12/23 18:06:44;;;;;;;;;;;;;;;;;;5031948;28;19917;-77
2021/12/23 18:09:12;;;;;;;;;;;;;;;;;;5023277;28;19944;-78
2021/12/23 18:11:39;;;;;;;;;;;;;;;;;;5028507;28;19917;-78